createdAt,value
2023-02-22T00:08:16.806Z,3.9
2023-02-22T00:27:35.867Z,4
2023-02-22T00:46:53.455Z,3.5
2023-02-22T01:06:11.306Z,3.2
2023-02-22T01:25:31.250Z,3.5
2023-02-22T01:44:51.447Z,3.5
2023-02-22T02:04:08.678Z,3.3
2023-02-22T02:23:27.864Z,3.4
2023-02-22T02:42:46.179Z,3.3
2023-02-22T03:02:05.629Z,3.2
2023-02-22T03:21:23.955Z,3.1
2023-02-22T03:40:42.299Z,3
2023-02-22T04:00:01.614Z,3
2023-02-22T04:19:21.455Z,3
2023-02-22T04:38:39.399Z,2.8
2023-02-22T04:57:58.804Z,2.9
2023-02-22T05:17:17.943Z,2.8
2023-02-22T05:36:37.220Z,2.9
2023-02-22T05:55:55.301Z,2.8
2023-02-22T06:15:14.439Z,2.9
2023-02-22T06:34:33.152Z,2.8
2023-02-22T06:53:48.603Z,2.5
2023-02-22T07:13:09.773Z,3.2
2023-02-22T07:32:31.147Z,3.5
2023-02-22T07:51:50.258Z,3.6
2023-02-22T08:11:11.656Z,3.9
2023-02-22T08:30:33.056Z,4.3
2023-02-22T08:49:56.113Z,5.1
2023-02-22T09:09:18.768Z,6.2
2023-02-22T09:28:41.146Z,6.9
2023-02-22T09:48:23.083Z,8.6
2023-02-22T10:07:38.993Z,10.6
2023-02-22T10:26:56.376Z,10.3
2023-02-22T10:46:19.784Z,10.1
2023-02-22T11:05:40.798Z,9.8
2023-02-22T11:25:01.757Z,10.1
2023-02-22T11:44:21.046Z,8.4
2023-02-22T12:03:40.790Z,7.9
2023-02-22T12:23:00.599Z,8.4
2023-02-22T12:42:20.714Z,7.7
2023-02-22T13:01:42.983Z,8.1
2023-02-22T13:21:02.771Z,7.8
2023-02-22T13:40:20.634Z,7.9
2023-02-22T13:59:40.276Z,8.1
2023-02-22T14:18:58.844Z,8.1
2023-02-22T14:38:17.944Z,7.7
2023-02-22T14:57:36.950Z,7.9
2023-02-22T15:16:55.594Z,8
2023-02-22T15:36:14.797Z,8.4
2023-02-22T15:55:33.849Z,8.7
2023-02-22T16:14:50.354Z,9
2023-02-22T16:34:08.303Z,9.2
2023-02-22T16:53:25.021Z,9
2023-02-22T17:12:43.184Z,8.8
2023-02-22T17:32:02.223Z,9.1
2023-02-22T17:51:20.345Z,9.2
2023-02-22T18:10:38.936Z,9.2
2023-02-22T18:29:57.988Z,9.3
2023-02-22T18:49:17.112Z,9.4
2023-02-22T19:08:36.319Z,9.6
2023-02-22T19:27:55.731Z,9.4
2023-02-22T19:47:17.577Z,9.2
2023-02-22T20:06:34.234Z,9.3
2023-02-22T20:25:53.705Z,9.5
2023-02-22T20:45:12.857Z,9.2
2023-02-22T21:04:32.470Z,9.3
2023-02-22T21:23:49.046Z,9.4
2023-02-22T21:43:07.845Z,9.2
2023-02-22T22:02:26.798Z,9.2
2023-02-22T22:21:45.237Z,9
2023-02-22T22:41:05.135Z,9.3
2023-02-22T23:00:23.139Z,9.5
2023-02-22T23:19:42.740Z,9.5
2023-02-22T23:39:02.815Z,9.4
2023-02-22T23:58:21.867Z,9.4
